sensor_id;sensor_type;location;lat;lon;timestamp;pressure;altitude;pressure_sealevel;temperature;humidity
40730;BME280;26418;50.070;8.436;2023-02-27T00:00:31;100832.91;;;-0.77;59.99
40730;BME280;26418;50.070;8.436;2023-02-27T00:02:56;100839.66;;;-0.75;60.11
40730;BME280;26418;50.070;8.436;2023-02-27T00:05:22;100841.47;;;-0.75;60.10
40730;BME280;26418;50.070;8.436;2023-02-27T00:07:48;100834.56;;;-0.76;60.34
40730;BME280;26418;50.070;8.436;2023-02-27T00:10:14;100837.22;;;-0.76;60.24
40730;BME280;26418;50.070;8.436;2023-02-27T00:12:40;100837.81;;;-0.81;60.90
40730;BME280;26418;50.070;8.436;2023-02-27T00:15:08;100840.25;;;-0.80;60.60
40730;BME280;26418;50.070;8.436;2023-02-27T00:17:34;100841.91;;;-0.78;60.53
40730;BME280;26418;50.070;8.436;2023-02-27T00:20:00;100838.81;;;-0.75;60.80
40730;BME280;26418;50.070;8.436;2023-02-27T00:22:26;100840.66;;;-0.76;60.95
40730;BME280;26418;50.070;8.436;2023-02-27T00:24:51;100840.03;;;-0.78;60.97
40730;BME280;26418;50.070;8.436;2023-02-27T00:27:17;100832.09;;;-0.85;61.31
40730;BME280;26418;50.070;8.436;2023-02-27T00:29:42;100839.44;;;-0.80;61.62
40730;BME280;26418;50.070;8.436;2023-02-27T00:32:07;100843.53;;;-0.84;61.45
40730;BME280;26418;50.070;8.436;2023-02-27T00:34:33;100830.22;;;-0.98;61.62
40730;BME280;26418;50.070;8.436;2023-02-27T00:36:58;100843.91;;;-0.87;62.29
40730;BME280;26418;50.070;8.436;2023-02-27T00:39:23;100844.16;;;-0.82;62.03
40730;BME280;26418;50.070;8.436;2023-02-27T00:41:49;100841.06;;;-0.79;61.79
40730;BME280;26418;50.070;8.436;2023-02-27T00:44:14;100844.78;;;-0.80;61.96
40730;BME280;26418;50.070;8.436;2023-02-27T00:46:39;100843.94;;;-0.81;61.82
40730;BME280;26418;50.070;8.436;2023-02-27T00:49:05;100853.16;;;-0.76;62.16
40730;BME280;26418;50.070;8.436;2023-02-27T00:51:30;100848.25;;;-0.73;61.83
40730;BME280;26418;50.070;8.436;2023-02-27T00:53:55;100849.06;;;-0.72;62.03
40730;BME280;26418;50.070;8.436;2023-02-27T00:56:21;100849.25;;;-0.81;62.00
40730;BME280;26418;50.070;8.436;2023-02-27T00:58:46;100852.13;;;-0.69;61.90
40730;BME280;26418;50.070;8.436;2023-02-27T01:01:11;100850.09;;;-0.67;61.53
40730;BME280;26418;50.070;8.436;2023-02-27T01:03:37;100850.09;;;-0.67;61.68
40730;BME280;26418;50.070;8.436;2023-02-27T01:06:02;100849.06;;;-0.66;61.56
40730;BME280;26418;50.070;8.436;2023-02-27T01:08:27;100854.56;;;-0.67;61.65
40730;BME280;26418;50.070;8.436;2023-02-27T01:10:54;100849.88;;;-0.78;61.89
40730;BME280;26418;50.070;8.436;2023-02-27T01:13:20;100845.72;;;-0.95;62.57
40730;BME280;26418;50.070;8.436;2023-02-27T01:15:45;100847.78;;;-0.90;62.54
40730;BME280;26418;50.070;8.436;2023-02-27T01:18:11;100856.78;;;-0.91;62.62
40730;BME280;26418;50.070;8.436;2023-02-27T01:20:36;100857.78;;;-0.92;63.04
40730;BME280;26418;50.070;8.436;2023-02-27T01:23:02;100858.22;;;-0.88;62.79
40730;BME280;26418;50.070;8.436;2023-02-27T01:25:27;100861.50;;;-0.93;62.59
40730;BME280;26418;50.070;8.436;2023-02-27T01:27:52;100859.84;;;-0.94;63.46
40730;BME280;26418;50.070;8.436;2023-02-27T01:30:18;100856.53;;;-1.03;63.30
40730;BME280;26418;50.070;8.436;2023-02-27T01:32:43;100857.78;;;-0.99;63.40
40730;BME280;26418;50.070;8.436;2023-02-27T01:35:09;100847.94;;;-1.05;63.14
40730;BME280;26418;50.070;8.436;2023-02-27T01:37:34;100861.47;;;-1.00;63.44
40730;BME280;26418;50.070;8.436;2023-02-27T01:39:59;100858.56;;;-1.12;63.16
40730;BME280;26418;50.070;8.436;2023-02-27T01:42:26;100858.97;;;-1.15;63.75
40730;BME280;26418;50.070;8.436;2023-02-27T01:47:46;100864.88;;;-1.19;64.26
40730;BME280;26418;50.070;8.436;2023-02-27T01:50:13;100869.38;;;-1.20;64.05
40730;BME280;26418;50.070;8.436;2023-02-27T01:52:39;100854.44;;;-1.21;64.47
40730;BME280;26418;50.070;8.436;2023-02-27T01:55:06;100862.63;;;-1.22;64.40
40730;BME280;26418;50.070;8.436;2023-02-27T01:57:34;100853.03;;;-1.23;64.55
40730;BME280;26418;50.070;8.436;2023-02-27T02:00:00;100847.09;;;-1.25;64.50
40730;BME280;26418;50.070;8.436;2023-02-27T02:02:29;100856.28;;;-1.21;64.30
40730;BME280;26418;50.070;8.436;2023-02-27T02:04:57;100812.28;;;-1.51;64.17
40730;BME280;26418;50.070;8.436;2023-02-27T02:07:23;100851.38;;;-1.24;63.58
40730;BME280;26418;50.070;8.436;2023-02-27T02:09:52;100854.06;;;-1.18;63.31
40730;BME280;26418;50.070;8.436;2023-02-27T02:12:23;100843.84;;;-1.21;63.05
40730;BME280;26418;50.070;8.436;2023-02-27T02:14:50;100848.34;;;-1.15;62.91
40730;BME280;26418;50.070;8.436;2023-02-27T02:23:00;100849.41;;;-1.02;62.08
40730;BME280;26418;50.070;8.436;2023-02-27T02:40:04;100856.97;;;-1.06;62.07
40730;BME280;26418;50.070;8.436;2023-02-27T02:42:46;100849.00;;;-1.06;61.77
40730;BME280;26418;50.070;8.436;2023-02-27T02:45:24;100848.97;;;-1.13;62.30
40730;BME280;26418;50.070;8.436;2023-02-27T02:50:40;100849.19;;;-1.14;62.34
40730;BME280;26418;50.070;8.436;2023-02-27T02:53:31;100850.00;;;-1.07;62.14
40730;BME280;26418;50.070;8.436;2023-02-27T02:56:12;100858.19;;;-1.02;62.01
40730;BME280;26418;50.070;8.436;2023-02-27T03:01:32;100859.59;;;-1.13;62.08
40730;BME280;26418;50.070;8.436;2023-02-27T03:07:10;100858.72;;;-1.27;61.73
40730;BME280;26418;50.070;8.436;2023-02-27T03:09:47;100849.50;;;-1.37;62.33
40730;BME280;26418;50.070;8.436;2023-02-27T03:12:18;100863.22;;;-1.27;62.49
40730;BME280;26418;50.070;8.436;2023-02-27T03:14:56;100846.41;;;-1.41;62.24
40730;BME280;26418;50.070;8.436;2023-02-27T03:17:34;100861.16;;;-1.32;62.20
40730;BME280;26418;50.070;8.436;2023-02-27T03:20:09;100862.63;;;-1.22;61.98
40730;BME280;26418;50.070;8.436;2023-02-27T03:22:37;100859.75;;;-1.21;62.06
40730;BME280;26418;50.070;8.436;2023-02-27T03:25:07;100857.31;;;-1.22;61.34
40730;BME280;26418;50.070;8.436;2023-02-27T03:27:40;100857.31;;;-1.22;61.12
40730;BME280;26418;50.070;8.436;2023-02-27T03:30:11;100851.38;;;-1.24;60.96
40730;BME280;26418;50.070;8.436;2023-02-27T03:32:58;100863.03;;;-1.19;60.45
40730;BME280;26418;50.070;8.436;2023-02-27T03:35:40;100846.88;;;-1.24;60.28
40730;BME280;26418;50.070;8.436;2023-02-27T03:38:16;100852.00;;;-1.22;60.04
40730;BME280;26418;50.070;8.436;2023-02-27T03:41:25;100863.03;;;-1.19;60.23
40730;BME280;26418;50.070;8.436;2023-02-27T03:46:40;100860.34;;;-1.25;60.13
40730;BME280;26418;50.070;8.436;2023-02-27T03:49:06;100869.97;;;-1.24;60.00
40730;BME280;26418;50.070;8.436;2023-02-27T03:51:32;100868.72;;;-1.22;60.01
40730;BME280;26418;50.070;8.436;2023-02-27T03:54:35;100867.31;;;-1.24;60.20
40730;BME280;26418;50.070;8.436;2023-02-27T03:57:06;100879.72;;;-1.32;60.10
40730;BME280;26418;50.070;8.436;2023-02-27T03:59:33;100879.31;;;-1.35;60.09
40730;BME280;26418;50.070;8.436;2023-02-27T04:02:01;100883.34;;;-1.39;60.51
40730;BME280;26418;50.070;8.436;2023-02-27T04:04:29;100883.41;;;-1.33;60.04
40730;BME280;26418;50.070;8.436;2023-02-27T04:07:15;100894.00;;;-1.33;60.29
40730;BME280;26418;50.070;8.436;2023-02-27T04:20:35;100895.56;;;-1.45;60.11
40730;BME280;26418;50.070;8.436;2023-02-27T04:23:12;100904.78;;;-1.41;59.92
40730;BME280;26418;50.070;8.436;2023-02-27T04:26:43;100898.22;;;-1.45;60.22
40730;BME280;26418;50.070;8.436;2023-02-27T04:28:47;100896.41;;;-1.38;59.87
40730;BME280;26418;50.070;8.436;2023-02-27T04:31:28;100901.72;;;-1.38;59.95
40730;BME280;26418;50.070;8.436;2023-02-27T04:33:58;100908.44;;;-1.42;60.47
40730;BME280;26418;50.070;8.436;2023-02-27T04:39:03;100898.31;;;-1.32;59.60
40730;BME280;26418;50.070;8.436;2023-02-27T04:41:52;100903.78;;;-1.40;59.40
40730;BME280;26418;50.070;8.436;2023-02-27T04:44:20;100900.28;;;-1.47;60.13
40730;BME280;26418;50.070;8.436;2023-02-27T04:46:47;100896.94;;;-1.56;60.31
40730;BME280;26418;50.070;8.436;2023-02-27T04:49:21;100907.81;;;-1.44;60.30
40730;BME280;26418;50.070;8.436;2023-02-27T04:51:52;100905.59;;;-1.40;59.94
40730;BME280;26418;50.070;8.436;2023-02-27T04:54:25;100916.41;;;-1.42;60.09
40730;BME280;26418;50.070;8.436;2023-02-27T04:56:56;100910.25;;;-1.49;60.44
40730;BME280;26418;50.070;8.436;2023-02-27T04:59:26;100911.91;;;-1.48;60.37
40730;BME280;26418;50.070;8.436;2023-02-27T05:02:11;100924.09;;;-1.54;60.71
40730;BME280;26418;50.070;8.436;2023-02-27T05:04:42;100916.53;;;-1.57;59.96
40730;BME280;26418;50.070;8.436;2023-02-27T05:07:12;100894.59;;;-1.72;60.60
40730;BME280;26418;50.070;8.436;2023-02-27T05:09:44;100918.75;;;-1.61;60.79
40730;BME280;26418;50.070;8.436;2023-02-27T05:12:48;100913.41;;;-1.67;60.77
40730;BME280;26418;50.070;8.436;2023-02-27T05:15:22;100922.19;;;-1.67;61.02
40730;BME280;26418;50.070;8.436;2023-02-27T05:18:04;100911.78;;;-1.68;60.69
40730;BME280;26418;50.070;8.436;2023-02-27T05:20:49;100927.28;;;-1.65;61.02
40730;BME280;26418;50.070;8.436;2023-02-27T05:23:35;100919.19;;;-1.57;60.32
40730;BME280;26418;50.070;8.436;2023-02-27T05:26:15;100934.50;;;-1.52;60.84
40730;BME280;26418;50.070;8.436;2023-02-27T05:31:31;100938.59;;;-1.56;60.45
40730;BME280;26418;50.070;8.436;2023-02-27T05:34:26;100937.59;;;-1.49;59.83
40730;BME280;26418;50.070;8.436;2023-02-27T05:36:59;100946.38;;;-1.48;60.07
40730;BME280;26418;50.070;8.436;2023-02-27T05:39:28;100926.47;;;-1.66;60.17
40730;BME280;26418;50.070;8.436;2023-02-27T05:42:04;100946.91;;;-1.60;60.25
40730;BME280;26418;50.070;8.436;2023-02-27T05:44:43;100945.84;;;-1.65;60.41
40730;BME280;26418;50.070;8.436;2023-02-27T05:47:19;100953.09;;;-1.52;60.37
40730;BME280;26418;50.070;8.436;2023-02-27T05:50:12;100959.25;;;-1.45;59.89
40730;BME280;26418;50.070;8.436;2023-02-27T05:52:39;100955.72;;;-1.52;60.10
40730;BME280;26418;50.070;8.436;2023-02-27T05:55:17;100956.72;;;-1.60;61.02
40730;BME280;26418;50.070;8.436;2023-02-27T05:57:52;100956.31;;;-1.57;60.58
40730;BME280;26418;50.070;8.436;2023-02-27T06:00:37;100961.00;;;-1.59;60.47
40730;BME280;26418;50.070;8.436;2023-02-27T06:03:04;100956.66;;;-1.67;60.96
40730;BME280;26418;50.070;8.436;2023-02-27T06:05:30;100961.44;;;-1.55;66.11
40730;BME280;26418;50.070;8.436;2023-02-27T06:07:55;100946.28;;;-1.62;63.88
40730;BME280;26418;50.070;8.436;2023-02-27T06:10:21;100958.50;;;-1.32;62.77
40730;BME280;26418;50.070;8.436;2023-02-27T06:12:48;100960.81;;;-1.22;62.40
40730;BME280;26418;50.070;8.436;2023-02-27T06:15:14;100961.16;;;-1.32;62.66
40730;BME280;26418;50.070;8.436;2023-02-27T06:17:39;100967.31;;;-1.32;64.03
40730;BME280;26418;50.070;8.436;2023-02-27T06:20:05;100971.59;;;-1.31;62.52
40730;BME280;26418;50.070;8.436;2023-02-27T06:22:32;100970.91;;;-1.39;62.13
40730;BME280;26418;50.070;8.436;2023-02-27T06:24:57;100985.59;;;-1.44;62.24
40730;BME280;26418;50.070;8.436;2023-02-27T06:27:23;100975.16;;;-1.52;62.42
40730;BME280;26418;50.070;8.436;2023-02-27T06:29:51;100975.94;;;-1.51;62.67
40730;BME280;26418;50.070;8.436;2023-02-27T06:32:16;100979.31;;;-1.36;62.58
40730;BME280;26418;50.070;8.436;2023-02-27T06:34:41;100980.91;;;-1.42;62.30
40730;BME280;26418;50.070;8.436;2023-02-27T06:37:07;100990.34;;;-1.32;62.36
40730;BME280;26418;50.070;8.436;2023-02-27T06:39:32;100983.59;;;-1.35;62.68
40730;BME280;26418;50.070;8.436;2023-02-27T06:41:57;100986.69;;;-1.31;62.58
40730;BME280;26418;50.070;8.436;2023-02-27T06:44:23;100984.25;;;-1.33;62.41
40730;BME280;26418;50.070;8.436;2023-02-27T06:46:48;100985.25;;;-1.34;62.58
40730;BME280;26418;50.070;8.436;2023-02-27T06:49:13;100973.38;;;-1.38;62.56
40730;BME280;26418;50.070;8.436;2023-02-27T06:51:39;100990.78;;;-1.29;63.05
40730;BME280;26418;50.070;8.436;2023-02-27T06:54:04;100990.59;;;-1.27;63.40
40730;BME280;26418;50.070;8.436;2023-02-27T06:56:30;100994.91;;;-1.19;63.24
40730;BME280;26418;50.070;8.436;2023-02-27T06:58:55;100982.00;;;-1.29;63.37
40730;BME280;26418;50.070;8.436;2023-02-27T07:01:20;100992.91;;;-1.17;63.87
40730;BME280;26418;50.070;8.436;2023-02-27T07:03:47;100996.03;;;-1.07;63.39
40730;BME280;26418;50.070;8.436;2023-02-27T07:06:12;100989.66;;;-1.13;63.38
40730;BME280;26418;50.070;8.436;2023-02-27T07:08:38;100994.19;;;-1.06;63.90
40730;BME280;26418;50.070;8.436;2023-02-27T07:11:03;100995.22;;;-1.01;63.65
40730;BME280;26418;50.070;8.436;2023-02-27T07:13:28;100983.34;;;-1.05;63.46
40730;BME280;26418;50.070;8.436;2023-02-27T07:15:54;101000.59;;;-0.94;63.33
40730;BME280;26418;50.070;8.436;2023-02-27T07:18:19;101012.47;;;-0.83;65.47
40730;BME280;26418;50.070;8.436;2023-02-27T07:20:48;100998.41;;;-0.77;64.01
40730;BME280;26418;50.070;8.436;2023-02-27T07:23:14;100983.91;;;-0.74;62.96
40730;BME280;26418;50.070;8.436;2023-02-27T07:25:39;100980.66;;;-0.76;63.06
40730;BME280;26418;50.070;8.436;2023-02-27T07:28:04;101005.00;;;-0.59;62.67
40730;BME280;26418;50.070;8.436;2023-02-27T07:30:30;101007.25;;;-0.63;62.85
40730;BME280;26418;50.070;8.436;2023-02-27T07:32:55;100986.59;;;-0.68;62.79
40730;BME280;26418;50.070;8.436;2023-02-27T07:35:20;100986.78;;;-0.69;62.49
40730;BME280;26418;50.070;8.436;2023-02-27T07:37:47;101000.78;;;-0.47;62.07
40730;BME280;26418;50.070;8.436;2023-02-27T07:40:12;101003.00;;;-0.44;62.01
40730;BME280;26418;50.070;8.436;2023-02-27T07:42:39;101010.41;;;-0.33;65.88
40730;BME280;26418;50.070;8.436;2023-02-27T07:45:04;101009.22;;;-0.23;62.08
40730;BME280;26418;50.070;8.436;2023-02-27T07:47:30;101001.84;;;-0.28;61.70
40730;BME280;26418;50.070;8.436;2023-02-27T07:49:55;101004.50;;;-0.14;61.36
40730;BME280;26418;50.070;8.436;2023-02-27T07:52:21;101006.78;;;-0.11;60.74
40730;BME280;26418;50.070;8.436;2023-02-27T07:54:46;101011.06;;;-0.17;60.77
40730;BME280;26418;50.070;8.436;2023-02-27T07:57:12;101015.97;;;-0.14;60.95
40730;BME280;26418;50.070;8.436;2023-02-27T07:59:38;101012.47;;;-0.14;60.87
40730;BME280;26418;50.070;8.436;2023-02-27T08:02:03;101012.06;;;-0.18;60.70
40730;BME280;26418;50.070;8.436;2023-02-27T08:04:29;101015.38;;;-0.09;60.88
40730;BME280;26418;50.070;8.436;2023-02-27T08:06:54;101013.13;;;-0.06;60.56
40730;BME280;26418;50.070;8.436;2023-02-27T08:09:19;101013.13;;;-0.06;60.24
40730;BME280;26418;50.070;8.436;2023-02-27T08:11:45;101013.72;;;-0.10;60.01
40730;BME280;26418;50.070;8.436;2023-02-27T08:14:10;101026.41;;;0.01;60.06
40730;BME280;26418;50.070;8.436;2023-02-27T08:16:35;101025.22;;;0.04;60.33
40730;BME280;26418;50.070;8.436;2023-02-27T08:19:01;101028.06;;;0.09;60.11
40730;BME280;26418;50.070;8.436;2023-02-27T08:21:27;101037.69;;;0.10;59.81
40730;BME280;26418;50.070;8.436;2023-02-27T08:23:52;101018.84;;;0.05;59.55
40730;BME280;26418;50.070;8.436;2023-02-27T08:26:19;101032.97;;;0.19;58.73
40730;BME280;26418;50.070;8.436;2023-02-27T08:28:45;101006.59;;;0.04;58.74
40730;BME280;26418;50.070;8.436;2023-02-27T08:31:10;101021.09;;;0.21;58.84
40730;BME280;26418;50.070;8.436;2023-02-27T08:33:36;101035.44;;;0.34;58.06
40730;BME280;26418;50.070;8.436;2023-02-27T08:36:01;101043.03;;;0.37;58.84
40730;BME280;26418;50.070;8.436;2023-02-27T08:38:26;101045.28;;;0.33;57.72
40730;BME280;26418;50.070;8.436;2023-02-27T08:40:52;101043.84;;;0.30;57.57
40730;BME280;26418;50.070;8.436;2023-02-27T08:43:18;101046.09;;;0.34;57.73
40730;BME280;26418;50.070;8.436;2023-02-27T08:45:45;101041.81;;;0.39;57.97
40730;BME280;26418;50.070;8.436;2023-02-27T08:48:10;101033.41;;;0.36;57.75
40730;BME280;26418;50.070;8.436;2023-02-27T08:50:38;101042.22;;;0.43;57.80
40730;BME280;26418;50.070;8.436;2023-02-27T08:53:03;101041.16;;;0.51;57.66
40730;BME280;26418;50.070;8.436;2023-02-27T08:55:29;101040.16;;;0.58;58.08
40730;BME280;26418;50.070;8.436;2023-02-27T08:57:54;101030.94;;;0.61;57.74
40730;BME280;26418;50.070;8.436;2023-02-27T09:00:20;101034.44;;;0.61;57.69
40730;BME280;26418;50.070;8.436;2023-02-27T09:02:45;101035.84;;;0.57;58.25
40730;BME280;26418;50.070;8.436;2023-02-27T09:05:11;101041.19;;;0.64;58.52
40730;BME280;26418;50.070;8.436;2023-02-27T09:07:36;101025.19;;;0.57;58.52
40730;BME280;26418;50.070;8.436;2023-02-27T09:10:02;101043.00;;;0.63;58.66
40730;BME280;26418;50.070;8.436;2023-02-27T09:12:27;101044.25;;;0.68;58.52
40730;BME280;26418;50.070;8.436;2023-02-27T09:14:53;101026.44;;;0.61;58.24
40730;BME280;26418;50.070;8.436;2023-02-27T09:17:18;101044.03;;;0.69;58.60
40730;BME280;26418;50.070;8.436;2023-02-27T09:19:43;101038.69;;;0.69;58.49
40730;BME280;26418;50.070;8.436;2023-02-27T09:22:09;101042.56;;;0.80;57.86
40730;BME280;26418;50.070;8.436;2023-02-27T09:24:34;101044.22;;;0.81;58.13
40730;BME280;26418;50.070;8.436;2023-02-27T09:26:59;101053.22;;;0.87;58.16
40730;BME280;26418;50.070;8.436;2023-02-27T09:29:24;101023.31;;;0.85;57.71
40730;BME280;26418;50.070;8.436;2023-02-27T09:31:51;101049.09;;;1.11;56.74
40730;BME280;26418;50.070;8.436;2023-02-27T09:34:17;101038.66;;;1.03;56.66
40730;BME280;26418;50.070;8.436;2023-02-27T09:36:43;101056.88;;;1.06;57.15
40730;BME280;26418;50.070;8.436;2023-02-27T09:39:08;101050.50;;;1.14;56.44
40730;BME280;26418;50.070;8.436;2023-02-27T09:42:05;101060.31;;;1.20;56.35
40730;BME280;26418;50.070;8.436;2023-02-27T09:44:41;101069.34;;;1.25;56.56
40730;BME280;26418;50.070;8.436;2023-02-27T09:47:20;101071.78;;;1.27;56.70
40730;BME280;26418;50.070;8.436;2023-02-27T09:50:00;101076.47;;;1.32;56.44
40730;BME280;26418;50.070;8.436;2023-02-27T09:52:28;101061.94;;;1.34;56.09
40730;BME280;26418;50.070;8.436;2023-02-27T09:54:54;101073.19;;;1.43;55.67
40730;BME280;26418;50.070;8.436;2023-02-27T10:00:37;101070.84;;;1.60;55.48
40730;BME280;26418;50.070;8.436;2023-02-27T10:03:46;101086.56;;;1.75;55.48
40730;BME280;26418;50.070;8.436;2023-02-27T10:06:36;101073.47;;;1.67;55.57
40730;BME280;26418;50.070;8.436;2023-02-27T10:11:56;101071.97;;;1.84;55.67
40730;BME280;26418;50.070;8.436;2023-02-27T10:14:37;101060.78;;;2.01;55.60
40730;BME280;26418;50.070;8.436;2023-02-27T10:17:13;101060.88;;;2.19;55.36
40730;BME280;26418;50.070;8.436;2023-02-27T10:19:43;101064.69;;;2.30;54.60
40730;BME280;26418;50.070;8.436;2023-02-27T10:22:13;101058.78;;;2.54;55.59
40730;BME280;26418;50.070;8.436;2023-02-27T10:24:52;101061.03;;;2.75;53.72
40730;BME280;26418;50.070;8.436;2023-02-27T10:27:20;101071.16;;;2.92;53.21
40730;BME280;26418;50.070;8.436;2023-02-27T10:29:45;101060.56;;;2.85;52.94
40730;BME280;26418;50.070;8.436;2023-02-27T10:32:32;101058.09;;;2.83;52.75
40730;BME280;26418;50.070;8.436;2023-02-27T10:35:08;101060.63;;;2.78;52.78
40730;BME280;26418;50.070;8.436;2023-02-27T10:37:45;101056.34;;;2.71;52.88
40730;BME280;26418;50.070;8.436;2023-02-27T10:40:14;101062.72;;;2.70;53.24
40730;BME280;26418;50.070;8.436;2023-02-27T10:42:39;101057.66;;;2.87;53.49
40730;BME280;26418;50.070;8.436;2023-02-27T10:45:10;101042.75;;;2.97;52.13
40730;BME280;26418;50.070;8.436;2023-02-27T10:47:36;101060.56;;;3.22;51.87
40730;BME280;26418;50.070;8.436;2023-02-27T10:50:23;101046.59;;;3.39;50.69
40730;BME280;26418;50.070;8.436;2023-02-27T10:52:51;101056.38;;;3.45;51.34
40730;BME280;26418;50.070;8.436;2023-02-27T10:55:22;101065.38;;;3.32;50.82
40730;BME280;26418;50.070;8.436;2023-02-27T10:57:48;101059.97;;;3.20;50.36
40730;BME280;26418;50.070;8.436;2023-02-27T11:02:52;101052.25;;;3.49;49.52
40730;BME280;26418;50.070;8.436;2023-02-27T11:05:24;101050.84;;;3.46;48.87
40730;BME280;26418;50.070;8.436;2023-02-27T11:07:50;101039.41;;;3.39;49.32
40730;BME280;26418;50.070;8.436;2023-02-27T11:10:20;101041.84;;;3.41;49.58
40730;BME280;26418;50.070;8.436;2023-02-27T11:15:23;101031.53;;;3.44;49.04
40730;BME280;26418;50.070;8.436;2023-02-27T11:17:50;101033.59;;;3.42;49.16
40730;BME280;26418;50.070;8.436;2023-02-27T11:20:36;101044.66;;;3.46;49.45
40730;BME280;26418;50.070;8.436;2023-02-27T11:23:15;101027.84;;;3.57;49.32
40730;BME280;26418;50.070;8.436;2023-02-27T11:25:41;101030.97;;;3.85;49.50
40730;BME280;26418;50.070;8.436;2023-02-27T11:28:27;101040.25;;;4.01;48.73
40730;BME280;26418;50.070;8.436;2023-02-27T11:31:02;101026.63;;;4.02;48.64
40730;BME280;26418;50.070;8.436;2023-02-27T11:33:33;101024.47;;;4.35;48.59
40730;BME280;26418;50.070;8.436;2023-02-27T11:36:01;101004.69;;;4.71;47.53
40730;BME280;26418;50.070;8.436;2023-02-27T11:38:28;101001.28;;;4.88;47.14
40730;BME280;26418;50.070;8.436;2023-02-27T11:40:57;101007.00;;;4.92;46.81
40730;BME280;26418;50.070;8.436;2023-02-27T11:43:25;101006.66;;;4.88;46.50
40730;BME280;26418;50.070;8.436;2023-02-27T11:46:08;101000.59;;;4.81;48.02
40730;BME280;26418;50.070;8.436;2023-02-27T11:54:42;100985.63;;;4.97;46.87
40730;BME280;26418;50.070;8.436;2023-02-27T12:02:53;100998.69;;;4.93;46.13
40730;BME280;26418;50.070;8.436;2023-02-27T12:05:30;100994.25;;;5.11;46.42
40730;BME280;26418;50.070;8.436;2023-02-27T12:08:12;100989.09;;;5.21;46.23
40730;BME280;26418;50.070;8.436;2023-02-27T12:10:47;100997.13;;;5.21;45.57
40730;BME280;26418;50.070;8.436;2023-02-27T12:13:18;100979.88;;;5.17;45.41
40730;BME280;26418;50.070;8.436;2023-02-27T12:18:52;100974.00;;;5.32;46.12
40730;BME280;26418;50.070;8.436;2023-02-27T12:21:58;100958.41;;;5.29;44.80
40730;BME280;26418;50.070;8.436;2023-02-27T12:24:28;100963.84;;;5.34;43.84
40730;BME280;26418;50.070;8.436;2023-02-27T12:29:51;100955.28;;;5.20;44.28
40730;BME280;26418;50.070;8.436;2023-02-27T12:32:24;100954.91;;;5.28;44.30
40730;BME280;26418;50.070;8.436;2023-02-27T12:34:54;100948.47;;;5.29;43.88
40730;BME280;26418;50.070;8.436;2023-02-27T12:37:25;100944.28;;;5.22;44.40
40730;BME280;26418;50.070;8.436;2023-02-27T12:39:53;100940.75;;;5.33;44.98
40730;BME280;26418;50.070;8.436;2023-02-27T12:42:45;100930.63;;;5.52;44.74
40730;BME280;26418;50.070;8.436;2023-02-27T12:45:36;100934.81;;;5.77;44.73
40730;BME280;26418;50.070;8.436;2023-02-27T12:48:30;100925.63;;;5.90;42.61
40730;BME280;26418;50.070;8.436;2023-02-27T12:51:12;100926.16;;;6.21;43.24
40730;BME280;26418;50.070;8.436;2023-02-27T12:56:18;100932.25;;;5.99;42.32
40730;BME280;26418;50.070;8.436;2023-02-27T13:01:44;100938.91;;;6.13;41.25
40730;BME280;26418;50.070;8.436;2023-02-27T13:06:52;100933.53;;;5.96;39.99
40730;BME280;26418;50.070;8.436;2023-02-27T13:12:24;100951.00;;;5.65;40.50
40730;BME280;26418;50.070;8.436;2023-02-27T13:15:18;100936.41;;;5.44;40.59
40730;BME280;26418;50.070;8.436;2023-02-27T13:17:48;100947.09;;;5.27;41.00
40730;BME280;26418;50.070;8.436;2023-02-27T13:20:37;100944.16;;;5.28;42.05
40730;BME280;26418;50.070;8.436;2023-02-27T13:23:46;100938.75;;;5.40;41.95
40730;BME280;26418;50.070;8.436;2023-02-27T13:26:19;100941.75;;;5.44;41.18
40730;BME280;26418;50.070;8.436;2023-02-27T13:28:46;100943.44;;;5.33;40.29
40730;BME280;26418;50.070;8.436;2023-02-27T13:31:24;100944.09;;;5.23;40.62
40730;BME280;26418;50.070;8.436;2023-02-27T13:34:04;100936.97;;;5.17;41.36
40730;BME280;26418;50.070;8.436;2023-02-27T13:36:49;100940.34;;;5.24;41.53
40730;BME280;26418;50.070;8.436;2023-02-27T13:39:49;100941.09;;;5.37;41.43
40730;BME280;26418;50.070;8.436;2023-02-27T13:44:52;100933.50;;;5.45;40.58
40730;BME280;26418;50.070;8.436;2023-02-27T13:49:57;100931.34;;;5.30;39.42
40730;BME280;26418;50.070;8.436;2023-02-27T13:52:30;100925.69;;;5.15;39.63
40730;BME280;26418;50.070;8.436;2023-02-27T13:54:55;100935.13;;;5.17;40.02
40730;BME280;26418;50.070;8.436;2023-02-27T13:57:23;100932.91;;;5.14;40.49
40730;BME280;26418;50.070;8.436;2023-02-27T13:59:52;100923.03;;;5.03;40.81
40730;BME280;26418;50.070;8.436;2023-02-27T14:04:56;100925.28;;;4.94;41.72
40730;BME280;26418;50.070;8.436;2023-02-27T14:07:31;100942.53;;;4.98;41.54
40730;BME280;26418;50.070;8.436;2023-02-27T14:10:05;100939.84;;;4.98;41.06
40730;BME280;26418;50.070;8.436;2023-02-27T14:12:38;100938.25;;;4.85;40.49
40730;BME280;26418;50.070;8.436;2023-02-27T14:18:01;100931.03;;;4.74;41.03
40730;BME280;26418;50.070;8.436;2023-02-27T14:28:15;100937.91;;;4.58;41.24
40730;BME280;26418;50.070;8.436;2023-02-27T14:30:52;100931.88;;;4.39;41.42
40730;BME280;26418;50.070;8.436;2023-02-27T14:33:43;100948.53;;;4.41;42.00
40730;BME280;26418;50.070;8.436;2023-02-27T14:39:19;100936.19;;;4.40;41.11
40730;BME280;26418;50.070;8.436;2023-02-27T14:41:56;100937.47;;;4.37;41.15
40730;BME280;26418;50.070;8.436;2023-02-27T14:44:26;100936.78;;;4.30;41.17
40730;BME280;26418;50.070;8.436;2023-02-27T14:46:53;100935.84;;;4.36;42.02
40730;BME280;26418;50.070;8.436;2023-02-27T14:51:46;100948.28;;;4.54;40.73
40730;BME280;26418;50.070;8.436;2023-02-27T14:54:15;100938.41;;;4.55;39.86
40730;BME280;26418;50.070;8.436;2023-02-27T14:56:55;100940.25;;;4.43;40.20
40730;BME280;26418;50.070;8.436;2023-02-27T14:59:47;100940.41;;;4.36;40.44
40730;BME280;26418;50.070;8.436;2023-02-27T15:05:11;100945.75;;;4.36;40.81
40730;BME280;26418;50.070;8.436;2023-02-27T15:07:43;100941.44;;;4.59;39.90
40730;BME280;26418;50.070;8.436;2023-02-27T15:10:17;100945.22;;;4.75;39.34
40730;BME280;26418;50.070;8.436;2023-02-27T15:12:44;100938.09;;;4.92;39.68